createdAt,value
2023-01-21T00:00:55.514Z,99337.88
2023-01-21T00:06:05.096Z,99339.81
2023-01-21T00:11:16.499Z,99351.72
2023-01-21T00:16:22.799Z,99350.94
2023-01-21T00:21:31.940Z,99332.69
2023-01-21T00:26:37.650Z,99341.13
2023-01-21T00:31:43.284Z,99333.13
2023-01-21T00:36:54.476Z,99336.97
2023-01-21T00:42:05.430Z,99328.41
2023-01-21T00:47:11.545Z,99349.38
2023-01-21T00:52:20.138Z,99340.53
2023-01-21T00:57:26.514Z,99349.25
2023-01-21T01:02:33.531Z,99354.72
2023-01-21T01:07:46.269Z,99352.03
2023-01-21T01:12:52.540Z,99357.28
2023-01-21T01:17:58.451Z,99342.81
2023-01-21T01:23:07.245Z,99352.53
2023-01-21T01:28:13.550Z,99350.97
2023-01-21T01:33:19.606Z,99363.91
2023-01-21T01:38:29.921Z,99361.81
2023-01-21T01:43:58.527Z,99378.31
2023-01-21T01:49:15.272Z,99370.25
2023-01-21T01:54:29.287Z,99378.59
2023-01-21T01:59:36.631Z,99373.06
2023-01-21T02:04:47.660Z,99368.44
2023-01-21T02:10:15.257Z,99390.81
2023-01-21T02:15:21.524Z,99394.03
2023-01-21T02:20:55.655Z,99387.66
2023-01-21T02:26:35.392Z,99399.31
2023-01-21T02:32:14.030Z,99411.69
2023-01-21T02:37:30.822Z,99410.88
2023-01-21T02:42:43.732Z,99415.94
2023-01-21T02:47:55.983Z,99406.53
2023-01-21T02:53:06.645Z,99395.91
2023-01-21T02:58:15.259Z,99410.69
2023-01-21T03:03:35.818Z,99413.81
2023-01-21T03:08:51.470Z,99411.63
2023-01-21T03:14:16.762Z,99417.56
2023-01-21T03:19:25.530Z,99421.16
2023-01-21T03:24:35.955Z,99428.72
2023-01-21T03:29:44.125Z,99439.16
2023-01-21T03:34:55.337Z,99443.88
2023-01-21T03:40:15.783Z,99436.84
2023-01-21T03:45:27.717Z,99436.06
2023-01-21T03:50:38.761Z,99441.88
2023-01-21T03:55:47.841Z,99442.09
2023-01-21T04:00:53.267Z,99442.09
2023-01-21T04:05:59.627Z,99439.28
2023-01-21T04:11:08.214Z,99437.03
2023-01-21T04:16:16.469Z,99440.50
2023-01-21T04:21:21.924Z,99447.03
2023-01-21T04:26:31.789Z,99452.03
2023-01-21T04:31:37.743Z,99448.06
2023-01-21T04:36:43.356Z,99455.53
2023-01-21T04:41:52.781Z,99464.56
2023-01-21T04:47:00.639Z,99447.81
2023-01-21T04:52:06.452Z,99455.28
2023-01-21T04:57:14.756Z,99452.47
2023-01-21T05:02:20.180Z,99454.66
2023-01-21T05:07:26.468Z,99461.13
2023-01-21T05:12:35.113Z,99461.09
2023-01-21T05:17:40.838Z,99465.81
2023-01-21T05:22:49.096Z,99460.34
2023-01-21T05:28:00.121Z,99475.19
2023-01-21T05:33:06.122Z,99456.63
2023-01-21T05:38:11.716Z,99470.63
2023-01-21T05:43:19.918Z,99467.34
2023-01-21T05:48:26.395Z,99476.41
2023-01-21T05:53:32.120Z,99475.59
2023-01-21T05:58:40.373Z,99475.13
2023-01-21T06:03:45.977Z,99470.31
2023-01-21T06:08:51.506Z,99470.69
2023-01-21T06:13:59.874Z,99487.88
2023-01-21T06:19:05.318Z,99487.94
2023-01-21T06:24:11.473Z,99489.31
2023-01-21T06:29:19.946Z,99475.50
2023-01-21T06:34:25.358Z,99479.69
2023-01-21T06:39:31.076Z,99472.22
2023-01-21T06:44:38.935Z,99483.16
2023-01-21T06:49:47.351Z,99489.03
2023-01-21T06:54:53.189Z,99493.44
2023-01-21T07:00:01.340Z,99489.31
2023-01-21T07:05:07.498Z,99498.31
2023-01-21T07:10:14.821Z,99486.28
2023-01-21T07:15:23.594Z,99486.28
2023-01-21T07:20:29.517Z,99495.28
2023-01-21T07:25:36.443Z,99509.63
2023-01-21T07:30:44.585Z,99514.63
2023-01-21T07:35:50.331Z,99512.38
2023-01-21T07:40:55.969Z,99504.78
2023-01-21T07:46:05.473Z,99513.53
2023-01-21T07:51:10.866Z,99519.66
2023-01-21T07:56:18.388Z,99512.38
2023-01-21T08:01:31.279Z,99524.75
2023-01-21T08:06:38.029Z,99508.53
2023-01-21T08:11:43.640Z,99514.69
2023-01-21T08:16:51.914Z,99512.25
2023-01-21T08:21:57.928Z,99507.66
2023-01-21T08:27:03.762Z,99516.81
2023-01-21T08:32:12.766Z,99512.66
2023-01-21T08:37:18.427Z,99490.44
2023-01-21T08:42:23.872Z,99514.59
2023-01-21T08:47:32.235Z,99505.75
2023-01-21T08:52:37.868Z,99513.28
2023-01-21T08:57:43.382Z,99520.19
2023-01-21T09:02:51.969Z,99511.50
2023-01-21T09:07:58.293Z,99510.72
2023-01-21T09:13:07.630Z,99524.53
2023-01-21T09:18:15.850Z,99524.88
2023-01-21T09:23:28.422Z,99526.69
2023-01-21T09:28:35.036Z,99539.88
2023-01-21T09:33:46.272Z,99525.31
2023-01-21T09:38:52.778Z,99526.31
2023-01-21T09:44:06.597Z,99507.34
2023-01-21T09:49:21.977Z,99508.44
2023-01-21T09:54:30.328Z,99511.19
2023-01-21T09:59:52.076Z,99522.84
2023-01-21T10:05:16.427Z,99508.03
2023-01-21T10:10:33.003Z,99519.16
2023-01-21T10:15:58.649Z,99512.09
2023-01-21T10:21:16.786Z,99498.03
2023-01-21T10:26:22.285Z,99498.66
2023-01-21T10:31:30.339Z,99497.16
2023-01-21T10:36:52.243Z,99508.97
2023-01-21T10:42:42.767Z,99492.63
2023-01-21T10:47:53.879Z,99483.75
2023-01-21T10:53:09.619Z,99462.16
2023-01-21T10:58:33.119Z,99457.50
2023-01-21T11:03:43.063Z,99456.38
2023-01-21T11:08:56.243Z,99469.88
2023-01-21T11:14:02.427Z,99448.16
2023-01-21T11:19:10.591Z,99451.81
2023-01-21T11:24:30.006Z,99441.22
2023-01-21T11:29:44.638Z,99443.69
2023-01-21T11:34:52.053Z,99438.28
2023-01-21T11:40:02.695Z,99414.16
2023-01-21T11:45:30.137Z,99432.91
2023-01-21T11:50:40.027Z,99421.19
2023-01-21T11:55:50.944Z,99424.78
2023-01-21T12:01:01.809Z,99408.72
2023-01-21T12:06:09.638Z,99408.31
2023-01-21T12:11:24.259Z,99401.94
2023-01-21T12:16:37.127Z,99400.66
2023-01-21T12:21:57.673Z,99392.59
2023-01-21T12:27:19.689Z,99388.38
2023-01-21T12:32:30.838Z,99363.53
2023-01-21T12:37:43.095Z,99371.91
2023-01-21T12:42:56.755Z,99362.63
2023-01-21T12:48:08.094Z,99348.66
2023-01-21T12:53:23.661Z,99340.50
2023-01-21T12:58:37.174Z,99309.50
2023-01-21T13:03:55.330Z,99316.84
2023-01-21T13:09:11.535Z,99297.66
2023-01-21T13:14:30.529Z,99288.69
2023-01-21T13:19:39.118Z,99281.66
2023-01-21T13:25:18.759Z,99274.53
2023-01-21T13:30:38.089Z,99280.31
2023-01-21T13:35:57.276Z,99274.44
2023-01-21T13:41:18.295Z,99269.13
2023-01-21T13:46:42.801Z,99271.00
2023-01-21T13:51:59.954Z,99268.19
2023-01-21T13:57:29.161Z,99269.53
2023-01-21T14:02:55.326Z,99267.91
2023-01-21T14:08:09.777Z,99256.38
2023-01-21T14:13:45.137Z,99263.66
2023-01-21T14:19:08.291Z,99267.47
2023-01-21T14:24:32.153Z,99262.28
2023-01-21T14:29:41.509Z,99270.75
2023-01-21T14:35:10.238Z,99247.09
2023-01-21T14:40:23.105Z,99257.09
2023-01-21T14:45:56.680Z,99249.16
2023-01-21T14:51:25.484Z,99248.84
2023-01-21T14:56:34.359Z,99248.50
2023-01-21T15:01:46.798Z,99250.00
2023-01-21T15:06:58.759Z,99243.13
2023-01-21T15:12:08.689Z,99253.00
2023-01-21T15:17:44.573Z,99258.00
2023-01-21T15:23:07.017Z,99258.34
2023-01-21T15:28:44.468Z,99245.25
2023-01-21T15:33:51.978Z,99253.84
2023-01-21T15:39:03.399Z,99254.16
2023-01-21T15:44:19.405Z,99232.50
2023-01-21T15:49:52.279Z,99251.81
2023-01-21T15:55:12.699Z,99235.72
2023-01-21T16:00:31.518Z,99246.53
2023-01-21T16:05:46.960Z,99241.66
2023-01-21T16:11:08.508Z,99232.69
2023-01-21T16:16:26.595Z,99246.97
2023-01-21T16:21:37.400Z,99234.13
2023-01-21T16:26:46.449Z,99228.78
2023-01-21T16:31:59.510Z,99223.53
2023-01-21T16:37:09.185Z,99235.63
2023-01-21T16:42:29.233Z,99237.31
2023-01-21T16:47:38.852Z,99220.91
2023-01-21T16:52:44.064Z,99217.25
2023-01-21T16:57:58.306Z,99226.38
2023-01-21T17:03:04.837Z,99240.84
2023-01-21T17:08:15.720Z,99233.22
2023-01-21T17:13:25.801Z,99235.91
2023-01-21T17:18:34.951Z,99239.94
2023-01-21T17:23:53.890Z,99249.09
2023-01-21T17:29:13.831Z,99253.25
2023-01-21T17:34:24.953Z,99245.34
2023-01-21T17:40:01.263Z,99248.66
2023-01-21T17:45:22.522Z,99263.81
2023-01-21T17:50:30.442Z,99255.19
2023-01-21T17:55:38.040Z,99259.75
2023-01-21T18:00:48.807Z,99268.81
2023-01-21T18:05:54.465Z,99262.28
2023-01-21T18:10:59.599Z,99276.47
2023-01-21T18:16:07.910Z,99275.63
2023-01-21T18:21:22.934Z,99280.03
2023-01-21T18:26:31.399Z,99286.38
2023-01-21T18:31:39.101Z,99290.44
2023-01-21T18:36:44.934Z,99295.72
2023-01-21T18:41:50.007Z,99293.75
2023-01-21T18:46:57.900Z,99284.88
2023-01-21T18:52:03.259Z,99289.75
2023-01-21T18:57:09.314Z,99290.28
2023-01-21T19:02:20.531Z,99297.56
2023-01-21T19:07:26.297Z,99297.91
2023-01-21T19:12:33.606Z,99292.81
2023-01-21T19:17:42.457Z,99296.31
2023-01-21T19:22:47.515Z,99292.91
2023-01-21T19:27:54.627Z,99293.47
2023-01-21T19:33:03.747Z,99299.38
2023-01-21T19:38:13.946Z,99301.84
2023-01-21T19:43:21.467Z,99315.09
2023-01-21T19:48:31.358Z,99317.13
2023-01-21T19:53:36.285Z,99332.84
2023-01-21T19:58:42.225Z,99341.50
2023-01-21T20:03:59.653Z,99341.72
2023-01-21T20:09:05.942Z,99343.47
2023-01-21T20:14:11.301Z,99356.81
2023-01-21T20:19:22.806Z,99358.88
2023-01-21T20:24:30.310Z,99363.09
2023-01-21T20:29:36.014Z,99372.63
2023-01-21T20:34:45.139Z,99369.22
2023-01-21T20:39:49.983Z,99375.44
2023-01-21T20:44:55.084Z,99391.50
2023-01-21T20:50:02.683Z,99392.31
2023-01-21T20:55:08.823Z,99391.47
2023-01-21T21:00:19.151Z,99399.16
2023-01-21T21:05:28.866Z,99400.63
2023-01-21T21:10:37.676Z,99414.28
2023-01-21T21:15:46.425Z,99415.72
2023-01-21T21:20:55.346Z,99417.66
2023-01-21T21:26:00.345Z,99414.41
2023-01-21T21:31:05.376Z,99421.63
2023-01-21T21:36:17.529Z,99424.47
2023-01-21T21:41:37.133Z,99419.81
2023-01-21T21:46:55.569Z,99430.75
2023-01-21T21:52:03.160Z,99433.41
2023-01-21T21:57:08.137Z,99439.25
2023-01-21T22:02:13.654Z,99443.66
2023-01-21T22:07:21.647Z,99444.47
2023-01-21T22:12:26.593Z,99444.97
2023-01-21T22:17:31.622Z,99448.75
2023-01-21T22:22:39.313Z,99448.75
2023-01-21T22:27:44.258Z,99448.91
2023-01-21T22:32:49.107Z,99458.00
2023-01-21T22:37:56.764Z,99460.19
2023-01-21T22:43:01.644Z,99461.84
2023-01-21T22:48:06.796Z,99468.63
2023-01-21T22:53:14.701Z,99468.22
2023-01-21T22:58:19.639Z,99465.63
2023-01-21T23:03:25.507Z,99470.34
2023-01-21T23:08:33.013Z,99466.19
2023-01-21T23:13:38.427Z,99462.16
2023-01-21T23:18:43.782Z,99464.44
2023-01-21T23:23:52.354Z,99482.56
2023-01-21T23:28:58.642Z,99483.78
2023-01-21T23:34:03.743Z,99485.75
2023-01-21T23:39:11.317Z,99489.25
2023-01-21T23:44:16.223Z,99488.44
2023-01-21T23:49:21.236Z,99490.84
2023-01-21T23:54:28.923Z,99490.94
2023-01-21T23:59:33.742Z,99484.97
